SYNOP

Station Code SYNOP
43555
AAXX 22184 43555 11458 50905 10276 20261 30108 40110 69901 70582 81232 333 59007 81818 85077=
43533
AAXX 22184 43533 11457 20905 10280 20253 30106 40108 60001 70510 82201 333 59010 82818=
43577
AAXX 22184 43577 12459 29901 10270 20250 30112 40114 60001 81231 333 59008 81818=
43588
AAXX 22184 43588 12462 10000 10248 20234 30114 40115 60001 81101 333 59004 81818=
43599
AAXX 22184 43599 12462 22706 10261 20247 30115 40117 60001 81101 333 59003 81819 =
Last Updated : 2021-01-22 22:59:35